createdAt,value
2023-04-26T00:01:04.106Z,84.74
2023-04-26T00:03:33.301Z,84.84
2023-04-26T00:06:09.162Z,84.98
2023-04-26T00:08:37.246Z,84.65
2023-04-26T00:11:05.302Z,84.69
2023-04-26T00:13:33.372Z,84.67
2023-04-26T00:16:01.417Z,84.64
2023-04-26T00:18:29.466Z,84.55
2023-04-26T00:20:57.572Z,84.41
2023-04-26T00:23:26.279Z,84.45
2023-04-26T00:25:54.547Z,84.36
2023-04-26T00:28:22.714Z,84.22
2023-04-26T00:30:51.378Z,84.14
2023-04-26T00:33:19.244Z,84.03
2023-04-26T00:35:47.223Z,83.78
2023-04-26T00:38:15.199Z,83.69
2023-04-26T00:40:43.078Z,83.65
2023-04-26T00:43:11.017Z,83.27
2023-04-26T00:45:39.445Z,83.12
2023-04-26T00:48:07.751Z,83.18
2023-04-26T00:50:35.854Z,83.25
2023-04-26T00:53:04.337Z,83.09
2023-04-26T00:55:32.562Z,82.86
2023-04-26T00:58:00.912Z,83.03
2023-04-26T01:00:29.875Z,83.08
2023-04-26T01:02:58.610Z,83.08
2023-04-26T01:05:26.859Z,82.82
2023-04-26T01:07:55.226Z,82.63
2023-04-26T01:10:25.570Z,82.66
2023-04-26T01:12:54.534Z,82.66
2023-04-26T01:15:22.460Z,82.37
2023-04-26T01:17:51.133Z,82.23
2023-04-26T01:20:20.081Z,82.23
2023-04-26T01:22:48.006Z,82.17
2023-04-26T01:25:17.965Z,81.95
2023-04-26T01:27:45.933Z,82.04
2023-04-26T01:30:13.898Z,82.42
2023-04-26T01:32:41.997Z,83.04
2023-04-26T01:35:10.112Z,83.22
2023-04-26T01:37:38.016Z,83.24
2023-04-26T01:40:07.187Z,83.28
2023-04-26T01:42:35.278Z,83.37
2023-04-26T01:45:03.345Z,83.35
2023-04-26T01:47:51.421Z,83.09
2023-04-26T01:50:19.655Z,83.12
2023-04-26T01:52:47.946Z,82.86
2023-04-26T01:55:16.003Z,82.71
2023-04-26T01:57:43.872Z,82.67
2023-04-26T02:00:12.139Z,82.72
2023-04-26T02:02:42.811Z,83.02
2023-04-26T02:05:12.607Z,83.14
2023-04-26T02:07:40.533Z,83.23
2023-04-26T02:10:09.250Z,83.42
2023-04-26T02:12:37.276Z,83.61
2023-04-26T02:15:06.446Z,83.77
2023-04-26T02:17:37.776Z,84.02
2023-04-26T02:20:07.354Z,84.13
2023-04-26T02:22:35.654Z,84.23
2023-04-26T02:25:03.676Z,84.40
2023-04-26T02:27:33.035Z,84.15
2023-04-26T02:30:01.823Z,83.88
2023-04-26T02:32:30.286Z,83.85
2023-04-26T02:34:58.655Z,83.84
2023-04-26T02:37:27.327Z,84.18
2023-04-26T02:39:55.082Z,84.26
2023-04-26T02:42:23.472Z,84.28
2023-04-26T02:44:51.350Z,84.52
2023-04-26T02:47:19.829Z,84.84
2023-04-26T02:49:48.961Z,85.06
2023-04-26T02:52:16.777Z,85.09
2023-04-26T02:54:44.645Z,85.05
2023-04-26T02:57:12.638Z,85.03
2023-04-26T02:59:40.793Z,85.10
2023-04-26T03:02:08.783Z,85.14
2023-04-26T03:04:37.161Z,85.36
2023-04-26T03:07:05.308Z,85.69
2023-04-26T03:09:34.916Z,86.17
2023-04-26T03:12:03.499Z,86.77
2023-04-26T03:14:33.587Z,87.16
2023-04-26T03:17:02.113Z,87.44
2023-04-26T03:19:30.985Z,87.88
2023-04-26T03:21:59.057Z,88.13
2023-04-26T03:24:27.330Z,88.52
2023-04-26T03:26:55.714Z,88.56
2023-04-26T03:29:23.993Z,88.46
2023-04-26T03:31:52.245Z,88.65
2023-04-26T03:34:20.223Z,89.05
2023-04-26T03:36:48.827Z,88.94
2023-04-26T03:39:17.903Z,89.07
2023-04-26T03:41:46.385Z,89.38
2023-04-26T03:44:14.479Z,89.25
2023-04-26T03:46:43.658Z,89.43
2023-04-26T03:49:11.624Z,89.38
2023-04-26T03:51:39.715Z,89.62
2023-04-26T03:54:07.779Z,89.53
2023-04-26T03:56:36.860Z,89.35
2023-04-26T03:59:05.035Z,89.35
2023-04-26T04:01:33.732Z,89.40
2023-04-26T04:04:02.286Z,89.25
2023-04-26T04:06:31.308Z,89.48
2023-04-26T04:08:59.365Z,89.47
2023-04-26T04:11:27.220Z,89.44
2023-04-26T04:13:55.300Z,89.47
2023-04-26T04:16:23.587Z,89.43
2023-04-26T04:18:51.962Z,89.46
2023-04-26T04:21:20.069Z,89.23
2023-04-26T04:23:48.299Z,89.12
2023-04-26T04:26:17.706Z,89.00
2023-04-26T04:28:47.460Z,88.83
2023-04-26T04:31:15.830Z,88.77
2023-04-26T04:33:43.788Z,88.78
2023-04-26T04:36:13.597Z,88.79
2023-04-26T04:38:41.521Z,88.67
2023-04-26T04:41:10.453Z,88.74
2023-04-26T04:43:39.316Z,88.64
2023-04-26T04:46:09.151Z,88.68
2023-04-26T04:48:38.953Z,88.71
2023-04-26T04:51:08.138Z,88.49
2023-04-26T04:53:37.129Z,88.36
2023-04-26T04:56:05.809Z,88.24
2023-04-26T04:58:33.802Z,88.31
2023-04-26T05:01:02.910Z,88.24
2023-04-26T05:03:38.598Z,87.87
2023-04-26T05:06:06.885Z,87.67
2023-04-26T05:08:34.685Z,87.50
2023-04-26T05:11:05.093Z,87.40
2023-04-26T05:13:33.175Z,86.75
2023-04-26T05:16:01.225Z,86.64
2023-04-26T05:18:29.230Z,87.07
2023-04-26T05:20:57.957Z,86.69
2023-04-26T05:23:26.628Z,86.26
2023-04-26T05:25:54.650Z,85.58
2023-04-26T05:28:42.895Z,85.25
2023-04-26T05:31:34.549Z,85.58
2023-04-26T05:34:22.150Z,85.35
2023-04-26T05:36:55.934Z,85.23
2023-04-26T05:39:24.038Z,85.01
2023-04-26T05:41:52.597Z,84.87
2023-04-26T05:44:21.002Z,84.76
2023-04-26T05:46:49.325Z,84.35
2023-04-26T05:49:17.334Z,84.15
2023-04-26T05:51:45.820Z,84.08
2023-04-26T05:54:13.732Z,84.19
2023-04-26T05:56:41.738Z,84.26
2023-04-26T05:59:12.394Z,83.85
2023-04-26T06:01:40.558Z,83.71
2023-04-26T06:04:09.094Z,83.62
2023-04-26T06:06:46.015Z,83.60
2023-04-26T06:09:14.816Z,83.45
2023-04-26T06:11:42.958Z,83.50
2023-04-26T06:14:19.820Z,83.47
2023-04-26T06:16:57.787Z,83.30
2023-04-26T06:19:25.919Z,83.13
2023-04-26T06:21:55.616Z,83.17
2023-04-26T06:24:25.389Z,83.19
2023-04-26T06:26:53.718Z,83.06
2023-04-26T06:29:21.932Z,82.54
2023-04-26T06:31:50.074Z,82.64
2023-04-26T06:34:19.200Z,82.52
2023-04-26T06:36:48.346Z,82.42
2023-04-26T06:39:17.341Z,82.32
2023-04-26T06:41:45.628Z,82.06
2023-04-26T06:44:13.843Z,82.10
2023-04-26T06:46:44.144Z,81.54
2023-04-26T06:49:12.083Z,81.39
2023-04-26T06:51:40.257Z,81.34
2023-04-26T06:54:08.222Z,81.13
2023-04-26T06:56:36.621Z,81.13
2023-04-26T06:59:05.397Z,81.00
2023-04-26T07:01:34.427Z,80.45
2023-04-26T07:04:03.734Z,80.05
2023-04-26T07:06:32.124Z,80.26
2023-04-26T07:09:01.492Z,79.66
2023-04-26T07:11:30.140Z,79.90
2023-04-26T07:13:57.921Z,79.60
2023-04-26T07:16:26.706Z,79.39
2023-04-26T07:18:58.451Z,79.50
2023-04-26T07:21:29.078Z,79.30
2023-04-26T07:23:57.256Z,79.37
2023-04-26T07:26:26.780Z,79.27
2023-04-26T07:28:54.697Z,79.05
2023-04-26T07:31:22.686Z,78.92
2023-04-26T07:33:52.327Z,78.78
2023-04-26T07:36:21.937Z,78.01
2023-04-26T07:38:51.027Z,77.88
2023-04-26T07:41:18.985Z,77.16
2023-04-26T07:43:47.243Z,76.85
2023-04-26T07:46:15.195Z,76.31
2023-04-26T07:48:43.282Z,76.37
2023-04-26T07:51:11.990Z,76.50
2023-04-26T07:53:40.547Z,76.47
2023-04-26T07:56:08.953Z,75.95
2023-04-26T07:58:39.389Z,75.87
2023-04-26T08:01:07.737Z,75.87
2023-04-26T08:03:36.597Z,75.42
2023-04-26T08:06:05.144Z,75.95
2023-04-26T08:08:33.685Z,76.05
2023-04-26T08:11:01.550Z,76.05
2023-04-26T08:13:29.605Z,75.93
2023-04-26T08:15:57.796Z,76.10
2023-04-26T08:18:25.987Z,75.93
2023-04-26T08:20:55.573Z,75.16
2023-04-26T08:23:23.537Z,75.04
2023-04-26T08:25:51.707Z,75.72
2023-04-26T08:28:19.574Z,75.90
2023-04-26T08:30:47.445Z,75.82
2023-04-26T08:33:15.350Z,75.83
2023-04-26T08:35:43.305Z,75.80
2023-04-26T08:38:11.288Z,76.14
2023-04-26T08:40:39.320Z,76.54
2023-04-26T08:43:08.916Z,76.72
2023-04-26T08:45:38.527Z,76.52
2023-04-26T08:48:09.371Z,76.13
2023-04-26T08:50:38.975Z,75.36
2023-04-26T08:53:08.181Z,74.82
2023-04-26T08:55:36.962Z,75.10
2023-04-26T08:58:05.437Z,75.33
2023-04-26T09:00:33.422Z,75.11
2023-04-26T09:03:01.594Z,74.45
2023-04-26T09:05:29.754Z,74.43
2023-04-26T09:08:00.995Z,74.65
2023-04-26T09:10:29.984Z,74.44
2023-04-26T09:12:58.172Z,74.00
2023-04-26T09:15:27.628Z,73.55
2023-04-26T09:17:55.654Z,73.64
2023-04-26T09:20:28.479Z,73.29
2023-04-26T09:23:07.141Z,73.24
2023-04-26T09:25:35.638Z,73.07
2023-04-26T09:28:04.251Z,72.73
2023-04-26T09:30:37.988Z,72.32
2023-04-26T09:33:07.048Z,71.94
2023-04-26T09:35:35.271Z,71.73
2023-04-26T09:38:11.088Z,72.28
2023-04-26T09:40:43.915Z,72.36
2023-04-26T09:43:12.858Z,71.62
2023-04-26T09:45:45.052Z,71.24
2023-04-26T09:48:32.290Z,71.07
2023-04-26T09:51:03.321Z,71.01
2023-04-26T09:53:31.747Z,70.61
2023-04-26T09:56:10.538Z,70.26
2023-04-26T09:58:39.647Z,70.73
2023-04-26T10:01:08.220Z,70.56
2023-04-26T10:03:37.339Z,70.64
2023-04-26T10:06:05.866Z,70.97
2023-04-26T10:08:34.148Z,70.67
2023-04-26T10:11:04.377Z,70.21
2023-04-26T10:13:33.161Z,70.18
2023-04-26T10:16:02.505Z,69.20
2023-04-26T10:18:31.756Z,67.99
2023-04-26T10:21:07.642Z,68.14
2023-04-26T10:23:35.885Z,68.20
2023-04-26T10:26:04.176Z,66.75
2023-04-26T10:28:37.938Z,66.19
2023-04-26T10:31:07.878Z,65.77
2023-04-26T10:33:36.134Z,65.71
2023-04-26T10:36:05.869Z,65.50
2023-04-26T10:38:34.753Z,65.48
2023-04-26T10:41:23.904Z,64.81
2023-04-26T10:43:52.152Z,65.23
2023-04-26T10:46:39.379Z,65.43
2023-04-26T10:49:15.032Z,65.64
2023-04-26T10:52:01.564Z,66.03
2023-04-26T10:54:44.694Z,65.45
2023-04-26T10:57:12.739Z,65.56
2023-04-26T10:59:53.904Z,66.24
2023-04-26T11:02:41.773Z,66.60
2023-04-26T11:05:09.970Z,66.39
2023-04-26T11:07:38.231Z,65.30
2023-04-26T11:10:12.548Z,65.77
2023-04-26T11:12:42.165Z,65.56
2023-04-26T11:15:12.666Z,64.25
2023-04-26T11:17:40.548Z,63.21
2023-04-26T11:20:16.351Z,62.79
2023-04-26T11:22:44.146Z,62.36
2023-04-26T11:25:13.453Z,62.87
2023-04-26T11:27:44.295Z,62.87
2023-04-26T11:30:12.841Z,62.91
2023-04-26T11:32:40.757Z,63.02
2023-04-26T11:35:09.399Z,62.98
2023-04-26T11:37:37.606Z,62.59
2023-04-26T11:40:07.937Z,62.81
2023-04-26T11:42:36.096Z,62.93
2023-04-26T11:45:07.108Z,63.03
2023-04-26T11:47:36.064Z,62.90
2023-04-26T11:50:04.214Z,63.42
2023-04-26T11:52:32.887Z,63.97
2023-04-26T11:55:06.017Z,63.78
2023-04-26T11:57:34.563Z,63.84
2023-04-26T12:00:14.764Z,63.61
2023-04-26T12:02:47.449Z,63.11
2023-04-26T12:05:21.806Z,62.80
2023-04-26T12:07:55.930Z,62.79
2023-04-26T12:10:28.084Z,63.09
2023-04-26T12:12:57.146Z,62.79
2023-04-26T12:15:33.725Z,61.72
2023-04-26T12:18:11.254Z,60.46
2023-04-26T12:20:40.680Z,60.54
2023-04-26T12:23:09.476Z,60.99
2023-04-26T12:25:39.482Z,60.18
2023-04-26T12:28:12.279Z,60.32
2023-04-26T12:30:41.242Z,59.77
2023-04-26T12:33:16.315Z,58.64
2023-04-26T12:35:46.928Z,58.79
2023-04-26T12:38:15.990Z,57.72
2023-04-26T12:40:45.299Z,56.67
2023-04-26T12:43:13.253Z,57.16
2023-04-26T12:45:41.337Z,57.48
2023-04-26T12:48:09.443Z,56.56
2023-04-26T12:50:37.559Z,57.32
2023-04-26T12:53:05.533Z,57.17
2023-04-26T12:55:33.908Z,56.53
2023-04-26T12:58:01.990Z,57.19
2023-04-26T13:00:30.166Z,57.53
2023-04-26T13:02:58.141Z,57.12
2023-04-26T13:05:26.529Z,56.41
2023-04-26T13:07:54.569Z,56.03
2023-04-26T13:10:22.743Z,54.95
2023-04-26T13:12:50.817Z,54.36
2023-04-26T13:15:18.700Z,54.57
2023-04-26T13:17:47.075Z,55.32
2023-04-26T13:20:15.036Z,55.64
2023-04-26T13:22:43.700Z,56.20
2023-04-26T13:25:13.318Z,56.23
2023-04-26T13:27:41.400Z,55.91
2023-04-26T13:30:09.760Z,55.97
2023-04-26T13:32:37.697Z,56.32
2023-04-26T13:35:06.123Z,57.70
2023-04-26T13:37:33.972Z,58.46
2023-04-26T13:40:02.045Z,58.95
2023-04-26T13:42:30.118Z,59.14
2023-04-26T13:44:57.914Z,58.95
2023-04-26T13:47:25.981Z,58.97
2023-04-26T13:49:54.812Z,59.18
2023-04-26T13:52:22.827Z,59.40
2023-04-26T13:54:50.875Z,58.71
2023-04-26T13:57:19.663Z,58.39
2023-04-26T13:59:47.884Z,57.91
2023-04-26T14:02:16.172Z,57.89
2023-04-26T14:04:44.906Z,58.27
2023-04-26T14:07:13.065Z,57.80
2023-04-26T14:09:41.021Z,56.50
2023-04-26T14:12:09.136Z,55.68
2023-04-26T14:14:37.392Z,55.36
2023-04-26T14:17:05.676Z,53.97
2023-04-26T14:19:33.837Z,53.13
2023-04-26T14:22:01.707Z,52.76
2023-04-26T14:24:29.667Z,51.65
2023-04-26T14:26:58.572Z,50.18
2023-04-26T14:29:26.547Z,49.27
2023-04-26T14:31:54.595Z,50.02
2023-04-26T14:34:23.707Z,50.39
2023-04-26T14:36:51.964Z,50.85
2023-04-26T14:39:19.942Z,50.85
2023-04-26T14:41:47.896Z,51.09
2023-04-26T14:44:16.379Z,51.24
2023-04-26T14:46:44.344Z,51.77
2023-04-26T14:49:12.428Z,51.99
2023-04-26T14:51:40.389Z,52.11
2023-04-26T14:54:08.679Z,51.83
2023-04-26T14:56:36.633Z,51.58
2023-04-26T14:59:04.709Z,51.94
2023-04-26T15:01:32.921Z,51.68
2023-04-26T15:04:01.733Z,51.39
2023-04-26T15:06:31.337Z,51.73
2023-04-26T15:09:00.061Z,51.59
2023-04-26T15:11:27.953Z,51.35
2023-04-26T15:13:55.903Z,51.93
2023-04-26T15:16:24.190Z,52.07
2023-04-26T15:18:52.260Z,52.05
2023-04-26T15:21:20.224Z,52.27
2023-04-26T15:23:48.071Z,52.00
2023-04-26T15:26:16.270Z,51.86
2023-04-26T15:28:44.251Z,52.48
2023-04-26T15:31:12.436Z,52.15
2023-04-26T15:33:40.762Z,52.48
2023-04-26T15:36:09.032Z,52.68
2023-04-26T15:38:36.993Z,52.87
2023-04-26T15:41:04.836Z,53.09
2023-04-26T15:43:32.836Z,53.32
2023-04-26T15:46:01.012Z,52.86
2023-04-26T15:48:28.786Z,52.96
2023-04-26T15:50:57.055Z,52.51
2023-04-26T15:53:25.043Z,51.65
2023-04-26T15:55:52.998Z,51.68
2023-04-26T15:58:20.967Z,50.45
2023-04-26T16:00:49.008Z,50.41
2023-04-26T16:03:17.305Z,50.81
2023-04-26T16:05:45.582Z,51.53
2023-04-26T16:08:17.604Z,51.83
2023-04-26T16:10:52.371Z,52.30
2023-04-26T16:13:20.620Z,52.75
2023-04-26T16:15:48.949Z,53.17
2023-04-26T16:18:17.407Z,53.49
2023-04-26T16:20:45.466Z,53.32
2023-04-26T16:23:13.751Z,52.70
2023-04-26T16:25:42.225Z,52.68
2023-04-26T16:28:11.847Z,52.82
2023-04-26T16:30:39.919Z,52.69
2023-04-26T16:33:10.324Z,52.77
2023-04-26T16:35:38.304Z,53.15
2023-04-26T16:38:06.997Z,53.55
2023-04-26T16:40:35.168Z,53.87
2023-04-26T16:43:03.372Z,54.33
2023-04-26T16:45:31.606Z,54.52
2023-04-26T16:47:59.654Z,54.81
2023-04-26T16:50:27.651Z,55.32
2023-04-26T16:52:55.497Z,55.54
2023-04-26T16:55:23.381Z,55.48
2023-04-26T16:57:51.245Z,55.46
2023-04-26T17:00:19.337Z,55.43
2023-04-26T17:02:48.965Z,55.55
2023-04-26T17:05:17.102Z,55.81
2023-04-26T17:07:44.968Z,55.86
2023-04-26T17:10:12.813Z,56.04
2023-04-26T17:12:40.897Z,56.39
2023-04-26T17:15:09.882Z,56.73
2023-04-26T17:17:38.053Z,57.04
2023-04-26T17:20:07.802Z,57.10
2023-04-26T17:22:36.874Z,57.16
2023-04-26T17:25:05.696Z,57.34
2023-04-26T17:27:33.718Z,57.59
2023-04-26T17:30:01.967Z,57.96
2023-04-26T17:32:29.992Z,58.00
2023-04-26T17:34:58.038Z,58.20
2023-04-26T17:37:26.139Z,58.44
2023-04-26T17:39:54.674Z,58.86
2023-04-26T17:42:22.665Z,59.11
2023-04-26T17:44:50.631Z,59.22
2023-04-26T17:47:18.702Z,59.46
2023-04-26T17:49:46.872Z,59.62
2023-04-26T17:52:14.932Z,59.79
2023-04-26T17:54:42.909Z,59.97
2023-04-26T17:57:10.760Z,60.20
2023-04-26T17:59:38.838Z,60.67
2023-04-26T18:02:07.995Z,60.82
2023-04-26T18:04:36.374Z,60.95
2023-04-26T18:07:05.133Z,61.10
2023-04-26T18:09:33.101Z,61.28
2023-04-26T18:12:01.757Z,61.09
2023-04-26T18:14:29.613Z,61.20
2023-04-26T18:16:57.712Z,61.29
2023-04-26T18:19:26.066Z,61.26
2023-04-26T18:21:53.927Z,61.33
2023-04-26T18:24:21.807Z,61.30
2023-04-26T18:26:49.993Z,61.53
2023-04-26T18:29:18.147Z,61.53
2023-04-26T18:31:46.283Z,61.64
2023-04-26T18:34:14.366Z,61.94
2023-04-26T18:36:42.260Z,62.36
2023-04-26T18:39:10.337Z,62.65
2023-04-26T18:41:38.207Z,62.84
2023-04-26T18:44:11.791Z,62.91
2023-04-26T18:46:41.029Z,63.17
2023-04-26T18:49:09.360Z,63.86
2023-04-26T18:51:40.306Z,63.87
2023-04-26T18:54:08.573Z,63.86
2023-04-26T18:56:37.716Z,64.32
2023-04-26T18:59:08.852Z,64.41
2023-04-26T19:01:38.106Z,64.47
2023-04-26T19:04:06.342Z,64.46
2023-04-26T19:06:34.559Z,64.81
2023-04-26T19:09:02.752Z,64.61
2023-04-26T19:11:33.182Z,64.69
2023-04-26T19:14:01.437Z,65.10
2023-04-26T19:16:32.672Z,65.18
2023-04-26T19:19:01.061Z,65.77
2023-04-26T19:21:29.435Z,65.79
2023-04-26T19:23:58.651Z,65.87
2023-04-26T19:26:27.031Z,66.17
2023-04-26T19:28:55.903Z,66.02
2023-04-26T19:31:26.504Z,66.50
2023-04-26T19:33:54.506Z,67.02
2023-04-26T19:36:22.486Z,66.81
2023-04-26T19:38:50.257Z,66.47
2023-04-26T19:41:18.267Z,66.59
2023-04-26T19:43:46.170Z,66.54
2023-04-26T19:46:14.724Z,67.04
2023-04-26T19:48:42.629Z,66.93
2023-04-26T19:51:17.471Z,66.77
2023-04-26T19:53:45.625Z,66.92
2023-04-26T19:56:13.411Z,67.12
2023-04-26T19:58:42.087Z,67.20
2023-04-26T20:01:10.012Z,67.22
2023-04-26T20:03:39.389Z,67.38
2023-04-26T20:06:09.726Z,67.47
2023-04-26T20:08:37.709Z,67.15
2023-04-26T20:11:05.706Z,67.35
2023-04-26T20:13:33.953Z,67.32
2023-04-26T20:16:02.248Z,67.80
2023-04-26T20:18:30.215Z,67.64
2023-04-26T20:20:58.182Z,67.49
2023-04-26T20:23:26.465Z,67.73
2023-04-26T20:25:54.535Z,67.93
2023-04-26T20:28:24.645Z,67.81
2023-04-26T20:30:53.250Z,68.15
2023-04-26T20:33:21.391Z,68.14
2023-04-26T20:35:49.278Z,68.55
2023-04-26T20:38:17.142Z,69.27
2023-04-26T20:40:45.246Z,69.12
2023-04-26T20:43:13.989Z,69.11
2023-04-26T20:45:42.625Z,69.05
2023-04-26T20:48:10.735Z,69.20
2023-04-26T20:50:38.630Z,69.21
2023-04-26T20:53:06.826Z,69.52
2023-04-26T20:55:34.971Z,69.52
2023-04-26T20:58:02.940Z,69.63
2023-04-26T21:00:30.971Z,69.43
2023-04-26T21:02:58.936Z,69.55
2023-04-26T21:05:27.357Z,70.25
2023-04-26T21:07:55.272Z,70.59
2023-04-26T21:10:23.297Z,70.99
2023-04-26T21:12:51.558Z,71.27
2023-04-26T21:15:19.337Z,71.23
2023-04-26T21:17:47.251Z,71.06
2023-04-26T21:20:15.473Z,71.06
2023-04-26T21:22:43.443Z,71.40
2023-04-26T21:25:13.628Z,71.13
2023-04-26T21:27:41.731Z,71.53
2023-04-26T21:30:10.019Z,71.85
2023-04-26T21:32:40.355Z,71.71
2023-04-26T21:35:08.606Z,71.63
2023-04-26T21:37:36.985Z,71.60
2023-04-26T21:40:05.621Z,71.59
2023-04-26T21:42:33.526Z,71.98
2023-04-26T21:45:01.750Z,71.74
2023-04-26T21:47:29.864Z,71.92
2023-04-26T21:49:58.259Z,71.83
2023-04-26T21:52:26.530Z,72.08
2023-04-26T21:54:54.603Z,72.15
2023-04-26T21:57:24.458Z,71.98
2023-04-26T21:59:52.614Z,72.00
2023-04-26T22:02:20.781Z,72.05
2023-04-26T22:04:48.953Z,72.21
2023-04-26T22:07:17.107Z,71.82
2023-04-26T22:09:45.074Z,71.82
2023-04-26T22:12:12.854Z,71.98
2023-04-26T22:14:40.806Z,71.79
2023-04-26T22:17:08.972Z,71.93
2023-04-26T22:19:36.951Z,71.93
2023-04-26T22:22:04.841Z,72.16
2023-04-26T22:24:33.111Z,71.92
2023-04-26T22:27:02.379Z,72.17
2023-04-26T22:29:30.323Z,72.35
2023-04-26T22:31:58.271Z,72.21
2023-04-26T22:34:26.302Z,72.13
2023-04-26T22:36:54.152Z,72.42
2023-04-26T22:39:22.025Z,72.31
2023-04-26T22:41:49.987Z,72.29
2023-04-26T22:44:17.971Z,72.21
2023-04-26T22:46:46.337Z,72.17
2023-04-26T22:49:14.385Z,72.26
2023-04-26T22:51:48.150Z,72.03
2023-04-26T22:54:21.919Z,72.02
2023-04-26T22:56:49.898Z,71.96
2023-04-26T22:59:17.756Z,71.89
2023-04-26T23:01:45.808Z,72.16
2023-04-26T23:04:13.944Z,71.91
2023-04-26T23:06:41.972Z,72.04
2023-04-26T23:09:10.090Z,72.11
2023-04-26T23:11:38.232Z,72.04
2023-04-26T23:14:07.260Z,72.26
2023-04-26T23:16:35.403Z,72.33
2023-04-26T23:19:03.246Z,72.43
2023-04-26T23:21:31.307Z,72.50
2023-04-26T23:23:59.170Z,72.67
2023-04-26T23:26:27.068Z,72.77
2023-04-26T23:28:55.028Z,72.83
2023-04-26T23:31:22.932Z,73.02
2023-04-26T23:33:51.144Z,72.85
2023-04-26T23:36:19.223Z,72.58
2023-04-26T23:38:47.295Z,72.87
2023-04-26T23:41:15.416Z,73.11
2023-04-26T23:43:43.343Z,72.80
2023-04-26T23:46:11.389Z,72.74
2023-04-26T23:48:39.581Z,72.85
2023-04-26T23:51:07.746Z,72.86
2023-04-26T23:53:35.700Z,73.07
2023-04-26T23:56:03.892Z,73.20
2023-04-26T23:58:31.966Z,73.11
